Terminal Aerodrome Forecast
Issued by NWS Amarillo, TX

Current Version | Previous Version | Text Only | Print | Product List | Glossary On
Versions: 1 2 3 4 5 6 7 8 9 10 11 12 13 14 15 16 17 18
285
FTUS44 KAMA 260520
TAFAMA
TAF
KAMA 260520Z 2606/2706 15008KT P6SM SKC
     FM261800 15015G24KT P6SM BKN250
     FM270100 13014KT P6SM BKN250=

USA.gov is the U.S. government's official web portal to all federal, state and local government web resources and services.